sensor_id;sensor_type;location;lat;lon;timestamp;P1;durP1;ratioP1;P2;durP2;ratioP2
31990;SDS011;18508;49.386;8.370;2023-04-03T00:01:19;4.82;;;2.67;;
31990;SDS011;18508;49.386;8.370;2023-04-03T00:03:47;6.38;;;2.40;;
31990;SDS011;18508;49.386;8.370;2023-04-03T00:06:19;3.47;;;2.22;;
31990;SDS011;18508;49.386;8.370;2023-04-03T00:08:48;6.28;;;2.70;;
31990;SDS011;18508;49.386;8.370;2023-04-03T00:11:16;5.32;;;2.50;;
31990;SDS011;18508;49.386;8.370;2023-04-03T00:13:45;4.07;;;2.45;;
31990;SDS011;18508;49.386;8.370;2023-04-03T00:16:13;3.97;;;2.58;;
31990;SDS011;18508;49.386;8.370;2023-04-03T00:18:41;4.78;;;2.45;;
31990;SDS011;18508;49.386;8.370;2023-04-03T00:21:10;3.63;;;2.30;;
31990;SDS011;18508;49.386;8.370;2023-04-03T00:23:41;4.93;;;2.78;;
31990;SDS011;18508;49.386;8.370;2023-04-03T00:26:09;9.32;;;2.72;;
31990;SDS011;18508;49.386;8.370;2023-04-03T00:28:38;6.78;;;2.97;;
31990;SDS011;18508;49.386;8.370;2023-04-03T00:31:06;6.07;;;2.80;;
31990;SDS011;18508;49.386;8.370;2023-04-03T00:33:34;5.72;;;2.80;;
31990;SDS011;18508;49.386;8.370;2023-04-03T00:36:05;5.38;;;2.65;;
31990;SDS011;18508;49.386;8.370;2023-04-03T00:38:35;4.35;;;2.72;;
31990;SDS011;18508;49.386;8.370;2023-04-03T00:41:05;4.10;;;2.88;;
31990;SDS011;18508;49.386;8.370;2023-04-03T00:43:35;3.70;;;2.35;;
31990;SDS011;18508;49.386;8.370;2023-04-03T00:46:03;4.60;;;2.80;;
31990;SDS011;18508;49.386;8.370;2023-04-03T00:48:32;8.68;;;2.85;;
31990;SDS011;18508;49.386;8.370;2023-04-03T00:51:05;4.82;;;2.70;;
31990;SDS011;18508;49.386;8.370;2023-04-03T00:53:35;4.32;;;2.63;;
31990;SDS011;18508;49.386;8.370;2023-04-03T00:56:09;5.80;;;3.33;;
31990;SDS011;18508;49.386;8.370;2023-04-03T00:58:41;6.07;;;3.45;;
31990;SDS011;18508;49.386;8.370;2023-04-03T01:01:12;6.22;;;3.65;;
31990;SDS011;18508;49.386;8.370;2023-04-03T01:03:43;5.90;;;3.22;;
31990;SDS011;18508;49.386;8.370;2023-04-03T01:06:11;5.63;;;2.90;;
31990;SDS011;18508;49.386;8.370;2023-04-03T01:08:43;7.80;;;3.45;;
31990;SDS011;18508;49.386;8.370;2023-04-03T01:11:14;5.00;;;2.88;;
31990;SDS011;18508;49.386;8.370;2023-04-03T01:13:42;6.63;;;2.60;;
31990;SDS011;18508;49.386;8.370;2023-04-03T01:16:10;7.95;;;2.95;;
31990;SDS011;18508;49.386;8.370;2023-04-03T01:18:39;5.03;;;2.47;;
31990;SDS011;18508;49.386;8.370;2023-04-03T01:21:26;5.20;;;2.35;;
31990;SDS011;18508;49.386;8.370;2023-04-03T01:24:18;4.50;;;2.13;;
31990;SDS011;18508;49.386;8.370;2023-04-03T01:27:00;4.88;;;2.50;;
31990;SDS011;18508;49.386;8.370;2023-04-03T01:29:30;4.65;;;2.78;;
31990;SDS011;18508;49.386;8.370;2023-04-03T01:32:00;6.68;;;2.60;;
31990;SDS011;18508;49.386;8.370;2023-04-03T01:34:29;6.78;;;3.15;;
31990;SDS011;18508;49.386;8.370;2023-04-03T01:36:57;5.95;;;2.67;;
31990;SDS011;18508;49.386;8.370;2023-04-03T01:39:26;6.00;;;2.90;;
31990;SDS011;18508;49.386;8.370;2023-04-03T01:41:54;5.47;;;3.20;;
31990;SDS011;18508;49.386;8.370;2023-04-03T01:44:22;6.13;;;2.88;;
31990;SDS011;18508;49.386;8.370;2023-04-03T01:46:50;7.80;;;2.90;;
31990;SDS011;18508;49.386;8.370;2023-04-03T01:49:19;6.43;;;2.85;;
31990;SDS011;18508;49.386;8.370;2023-04-03T01:51:48;5.88;;;3.05;;
31990;SDS011;18508;49.386;8.370;2023-04-03T01:54:16;4.57;;;2.53;;
31990;SDS011;18508;49.386;8.370;2023-04-03T01:56:44;4.95;;;2.70;;
31990;SDS011;18508;49.386;8.370;2023-04-03T01:59:12;6.00;;;3.03;;
31990;SDS011;18508;49.386;8.370;2023-04-03T02:01:40;5.03;;;2.55;;
31990;SDS011;18508;49.386;8.370;2023-04-03T02:04:09;5.13;;;2.90;;
31990;SDS011;18508;49.386;8.370;2023-04-03T02:06:39;5.35;;;3.22;;
31990;SDS011;18508;49.386;8.370;2023-04-03T02:09:07;4.38;;;2.85;;
31990;SDS011;18508;49.386;8.370;2023-04-03T02:11:38;7.10;;;3.05;;
31990;SDS011;18508;49.386;8.370;2023-04-03T02:14:07;5.63;;;3.25;;
31990;SDS011;18508;49.386;8.370;2023-04-03T02:16:35;7.05;;;3.38;;
31990;SDS011;18508;49.386;8.370;2023-04-03T02:19:03;8.43;;;3.75;;
31990;SDS011;18508;49.386;8.370;2023-04-03T02:21:31;4.60;;;2.97;;
31990;SDS011;18508;49.386;8.370;2023-04-03T02:24:03;5.20;;;2.85;;
31990;SDS011;18508;49.386;8.370;2023-04-03T02:26:32;8.52;;;3.30;;
31990;SDS011;18508;49.386;8.370;2023-04-03T02:29:00;4.80;;;3.13;;
31990;SDS011;18508;49.386;8.370;2023-04-03T02:31:29;7.07;;;3.20;;
31990;SDS011;18508;49.386;8.370;2023-04-03T02:33:58;6.57;;;3.05;;
31990;SDS011;18508;49.386;8.370;2023-04-03T02:36:26;5.63;;;3.40;;
31990;SDS011;18508;49.386;8.370;2023-04-03T02:38:56;6.45;;;3.65;;
31990;SDS011;18508;49.386;8.370;2023-04-03T02:41:26;6.35;;;3.58;;
31990;SDS011;18508;49.386;8.370;2023-04-03T02:44:00;5.90;;;3.55;;
31990;SDS011;18508;49.386;8.370;2023-04-03T02:46:29;5.78;;;3.80;;
31990;SDS011;18508;49.386;8.370;2023-04-03T02:48:57;6.00;;;3.63;;
31990;SDS011;18508;49.386;8.370;2023-04-03T02:51:25;7.07;;;4.25;;
31990;SDS011;18508;49.386;8.370;2023-04-03T02:53:53;8.98;;;4.47;;
31990;SDS011;18508;49.386;8.370;2023-04-03T02:56:22;8.05;;;4.40;;
31990;SDS011;18508;49.386;8.370;2023-04-03T02:58:51;6.32;;;3.92;;
31990;SDS011;18508;49.386;8.370;2023-04-03T03:01:19;6.15;;;3.75;;
31990;SDS011;18508;49.386;8.370;2023-04-03T03:03:47;10.15;;;4.43;;
31990;SDS011;18508;49.386;8.370;2023-04-03T03:06:16;8.30;;;3.67;;
31990;SDS011;18508;49.386;8.370;2023-04-03T03:08:44;8.30;;;3.67;;
31990;SDS011;18508;49.386;8.370;2023-04-03T03:11:13;7.30;;;3.15;;
31990;SDS011;18508;49.386;8.370;2023-04-03T03:13:42;7.55;;;3.65;;
31990;SDS011;18508;49.386;8.370;2023-04-03T03:16:12;5.82;;;3.58;;
31990;SDS011;18508;49.386;8.370;2023-04-03T03:18:41;4.25;;;3.00;;
31990;SDS011;18508;49.386;8.370;2023-04-03T03:21:09;6.53;;;3.72;;
31990;SDS011;18508;49.386;8.370;2023-04-03T03:23:38;6.50;;;3.30;;
31990;SDS011;18508;49.386;8.370;2023-04-03T03:26:06;7.88;;;3.28;;
31990;SDS011;18508;49.386;8.370;2023-04-03T03:28:36;5.85;;;3.33;;
31990;SDS011;18508;49.386;8.370;2023-04-03T03:31:07;7.97;;;3.67;;
31990;SDS011;18508;49.386;8.370;2023-04-03T03:33:38;6.50;;;3.60;;
31990;SDS011;18508;49.386;8.370;2023-04-03T03:36:06;7.88;;;3.30;;
31990;SDS011;18508;49.386;8.370;2023-04-03T03:38:35;7.28;;;3.30;;
31990;SDS011;18508;49.386;8.370;2023-04-03T03:41:04;5.30;;;2.90;;
31990;SDS011;18508;49.386;8.370;2023-04-03T03:43:33;4.80;;;2.92;;
31990;SDS011;18508;49.386;8.370;2023-04-03T03:46:01;5.47;;;3.20;;
31990;SDS011;18508;49.386;8.370;2023-04-03T03:48:29;5.05;;;3.30;;
31990;SDS011;18508;49.386;8.370;2023-04-03T03:50:58;5.45;;;3.10;;
31990;SDS011;18508;49.386;8.370;2023-04-03T03:53:26;4.53;;;3.10;;
31990;SDS011;18508;49.386;8.370;2023-04-03T03:55:54;6.28;;;3.30;;
31990;SDS011;18508;49.386;8.370;2023-04-03T03:58:23;11.43;;;8.07;;
31990;SDS011;18508;49.386;8.370;2023-04-03T04:00:52;5.95;;;3.45;;
31990;SDS011;18508;49.386;8.370;2023-04-03T04:03:21;5.90;;;3.53;;
31990;SDS011;18508;49.386;8.370;2023-04-03T04:05:51;5.88;;;3.72;;
31990;SDS011;18508;49.386;8.370;2023-04-03T04:08:20;6.65;;;3.70;;
31990;SDS011;18508;49.386;8.370;2023-04-03T04:10:51;5.95;;;3.33;;
31990;SDS011;18508;49.386;8.370;2023-04-03T04:13:20;6.25;;;3.72;;
31990;SDS011;18508;49.386;8.370;2023-04-03T04:15:48;6.68;;;3.67;;
31990;SDS011;18508;49.386;8.370;2023-04-03T04:18:16;8.55;;;4.63;;
31990;SDS011;18508;49.386;8.370;2023-04-03T04:20:46;6.75;;;3.83;;
31990;SDS011;18508;49.386;8.370;2023-04-03T04:23:16;7.28;;;4.13;;
31990;SDS011;18508;49.386;8.370;2023-04-03T04:25:46;9.93;;;4.18;;
31990;SDS011;18508;49.386;8.370;2023-04-03T04:28:15;10.05;;;4.40;;
31990;SDS011;18508;49.386;8.370;2023-04-03T04:30:44;13.00;;;4.55;;
31990;SDS011;18508;49.386;8.370;2023-04-03T04:33:12;9.63;;;4.32;;
31990;SDS011;18508;49.386;8.370;2023-04-03T04:35:41;8.50;;;4.45;;
31990;SDS011;18508;49.386;8.370;2023-04-03T04:38:10;7.75;;;3.97;;
31990;SDS011;18508;49.386;8.370;2023-04-03T04:40:39;7.18;;;3.70;;
31990;SDS011;18508;49.386;8.370;2023-04-03T04:43:09;7.50;;;3.78;;
31990;SDS011;18508;49.386;8.370;2023-04-03T04:45:40;6.38;;;4.07;;
31990;SDS011;18508;49.386;8.370;2023-04-03T04:48:08;6.82;;;3.22;;
31990;SDS011;18508;49.386;8.370;2023-04-03T04:50:36;7.53;;;3.58;;
31990;SDS011;18508;49.386;8.370;2023-04-03T04:53:05;9.57;;;4.05;;
31990;SDS011;18508;49.386;8.370;2023-04-03T04:55:35;6.03;;;3.92;;
31990;SDS011;18508;49.386;8.370;2023-04-03T04:58:04;7.65;;;4.68;;
31990;SDS011;18508;49.386;8.370;2023-04-03T05:00:35;6.13;;;3.50;;
31990;SDS011;18508;49.386;8.370;2023-04-03T05:03:03;6.90;;;3.67;;
31990;SDS011;18508;49.386;8.370;2023-04-03T05:05:32;5.35;;;3.38;;
31990;SDS011;18508;49.386;8.370;2023-04-03T05:08:02;7.78;;;3.75;;
31990;SDS011;18508;49.386;8.370;2023-04-03T05:10:31;7.43;;;3.50;;
31990;SDS011;18508;49.386;8.370;2023-04-03T05:13:01;6.82;;;3.80;;
31990;SDS011;18508;49.386;8.370;2023-04-03T05:15:29;6.15;;;3.97;;
31990;SDS011;18508;49.386;8.370;2023-04-03T05:17:59;7.88;;;3.92;;
31990;SDS011;18508;49.386;8.370;2023-04-03T05:20:28;8.13;;;4.38;;
31990;SDS011;18508;49.386;8.370;2023-04-03T05:22:57;10.52;;;4.72;;
31990;SDS011;18508;49.386;8.370;2023-04-03T05:25:26;7.90;;;5.00;;
31990;SDS011;18508;49.386;8.370;2023-04-03T05:27:56;9.90;;;5.47;;
31990;SDS011;18508;49.386;8.370;2023-04-03T05:30:25;8.23;;;5.13;;
31990;SDS011;18508;49.386;8.370;2023-04-03T05:32:53;11.45;;;5.47;;
31990;SDS011;18508;49.386;8.370;2023-04-03T05:35:24;8.82;;;4.72;;
31990;SDS011;18508;49.386;8.370;2023-04-03T05:37:52;9.65;;;5.47;;
31990;SDS011;18508;49.386;8.370;2023-04-03T05:40:21;8.27;;;5.30;;
31990;SDS011;18508;49.386;8.370;2023-04-03T05:42:49;9.32;;;5.05;;
31990;SDS011;18508;49.386;8.370;2023-04-03T05:45:18;9.25;;;5.35;;
31990;SDS011;18508;49.386;8.370;2023-04-03T05:47:47;8.23;;;5.60;;
31990;SDS011;18508;49.386;8.370;2023-04-03T05:50:16;9.48;;;5.35;;
31990;SDS011;18508;49.386;8.370;2023-04-03T05:52:47;9.65;;;5.22;;
31990;SDS011;18508;49.386;8.370;2023-04-03T05:55:18;11.48;;;5.80;;
31990;SDS011;18508;49.386;8.370;2023-04-03T05:57:46;6.82;;;4.80;;
31990;SDS011;18508;49.386;8.370;2023-04-03T06:00:18;8.27;;;4.85;;
31990;SDS011;18508;49.386;8.370;2023-04-03T06:02:48;8.57;;;5.15;;
31990;SDS011;18508;49.386;8.370;2023-04-03T06:05:17;10.43;;;5.10;;
31990;SDS011;18508;49.386;8.370;2023-04-03T06:07:47;7.40;;;4.93;;
31990;SDS011;18508;49.386;8.370;2023-04-03T06:10:15;7.45;;;4.63;;
31990;SDS011;18508;49.386;8.370;2023-04-03T06:12:46;9.13;;;4.45;;
31990;SDS011;18508;49.386;8.370;2023-04-03T06:15:14;8.77;;;4.85;;
31990;SDS011;18508;49.386;8.370;2023-04-03T06:17:43;8.15;;;4.80;;
31990;SDS011;18508;49.386;8.370;2023-04-03T06:20:12;10.73;;;5.13;;
31990;SDS011;18508;49.386;8.370;2023-04-03T06:22:42;9.07;;;4.93;;
31990;SDS011;18508;49.386;8.370;2023-04-03T06:25:13;10.50;;;5.80;;
31990;SDS011;18508;49.386;8.370;2023-04-03T06:27:44;10.75;;;5.38;;
31990;SDS011;18508;49.386;8.370;2023-04-03T06:30:15;9.57;;;5.30;;
31990;SDS011;18508;49.386;8.370;2023-04-03T06:32:43;11.73;;;5.15;;
31990;SDS011;18508;49.386;8.370;2023-04-03T06:35:12;11.57;;;5.75;;
31990;SDS011;18508;49.386;8.370;2023-04-03T06:37:41;9.57;;;4.55;;
31990;SDS011;18508;49.386;8.370;2023-04-03T06:40:13;9.45;;;5.00;;
31990;SDS011;18508;49.386;8.370;2023-04-03T06:42:47;9.52;;;4.93;;
31990;SDS011;18508;49.386;8.370;2023-04-03T06:45:15;8.93;;;4.47;;
31990;SDS011;18508;49.386;8.370;2023-04-03T06:47:46;10.60;;;4.25;;
31990;SDS011;18508;49.386;8.370;2023-04-03T06:50:15;9.40;;;4.00;;
31990;SDS011;18508;49.386;8.370;2023-04-03T06:52:43;5.80;;;3.17;;
31990;SDS011;18508;49.386;8.370;2023-04-03T06:55:13;6.82;;;3.80;;
31990;SDS011;18508;49.386;8.370;2023-04-03T06:57:42;6.63;;;4.03;;
31990;SDS011;18508;49.386;8.370;2023-04-03T07:00:11;6.93;;;3.63;;
31990;SDS011;18508;49.386;8.370;2023-04-03T07:02:40;6.45;;;3.53;;
31990;SDS011;18508;49.386;8.370;2023-04-03T07:05:09;8.32;;;3.63;;
31990;SDS011;18508;49.386;8.370;2023-04-03T07:07:39;6.30;;;3.60;;
31990;SDS011;18508;49.386;8.370;2023-04-03T07:10:09;9.77;;;4.45;;
31990;SDS011;18508;49.386;8.370;2023-04-03T07:12:42;9.95;;;4.55;;
31990;SDS011;18508;49.386;8.370;2023-04-03T07:15:11;7.97;;;4.18;;
31990;SDS011;18508;49.386;8.370;2023-04-03T07:17:40;6.82;;;3.78;;
31990;SDS011;18508;49.386;8.370;2023-04-03T07:20:08;6.88;;;3.58;;
31990;SDS011;18508;49.386;8.370;2023-04-03T07:22:37;6.38;;;4.00;;
31990;SDS011;18508;49.386;8.370;2023-04-03T07:25:06;8.07;;;4.38;;
31990;SDS011;18508;49.386;8.370;2023-04-03T07:27:35;6.05;;;3.75;;
31990;SDS011;18508;49.386;8.370;2023-04-03T07:30:06;9.68;;;3.70;;
31990;SDS011;18508;49.386;8.370;2023-04-03T07:32:36;14.50;;;3.97;;
31990;SDS011;18508;49.386;8.370;2023-04-03T07:35:06;5.47;;;3.47;;
31990;SDS011;18508;49.386;8.370;2023-04-03T07:37:34;6.95;;;3.60;;
31990;SDS011;18508;49.386;8.370;2023-04-03T07:40:03;5.10;;;3.05;;
31990;SDS011;18508;49.386;8.370;2023-04-03T07:42:34;7.90;;;4.10;;
31990;SDS011;18508;49.386;8.370;2023-04-03T07:45:06;5.78;;;3.53;;
31990;SDS011;18508;49.386;8.370;2023-04-03T07:47:34;6.40;;;3.65;;
31990;SDS011;18508;49.386;8.370;2023-04-03T07:50:03;7.90;;;3.55;;
31990;SDS011;18508;49.386;8.370;2023-04-03T07:52:32;8.43;;;3.72;;
31990;SDS011;18508;49.386;8.370;2023-04-03T07:55:00;7.57;;;3.50;;
31990;SDS011;18508;49.386;8.370;2023-04-03T07:57:30;8.93;;;4.10;;
31990;SDS011;18508;49.386;8.370;2023-04-03T07:59:58;7.70;;;3.65;;
31990;SDS011;18508;49.386;8.370;2023-04-03T08:02:28;6.55;;;3.70;;
31990;SDS011;18508;49.386;8.370;2023-04-03T08:05:00;7.68;;;3.05;;
31990;SDS011;18508;49.386;8.370;2023-04-03T08:07:28;5.18;;;3.17;;
31990;SDS011;18508;49.386;8.370;2023-04-03T08:09:56;6.75;;;3.10;;
31990;SDS011;18508;49.386;8.370;2023-04-03T08:12:25;5.82;;;2.90;;
31990;SDS011;18508;49.386;8.370;2023-04-03T08:14:54;5.85;;;2.83;;
31990;SDS011;18508;49.386;8.370;2023-04-03T08:17:24;6.45;;;2.88;;
31990;SDS011;18508;49.386;8.370;2023-04-03T08:19:54;4.90;;;2.47;;
31990;SDS011;18508;49.386;8.370;2023-04-03T08:22:22;6.82;;;3.35;;
31990;SDS011;18508;49.386;8.370;2023-04-03T08:24:50;5.82;;;2.60;;
31990;SDS011;18508;49.386;8.370;2023-04-03T08:27:25;5.40;;;2.40;;
31990;SDS011;18508;49.386;8.370;2023-04-03T08:29:53;4.93;;;2.28;;
31990;SDS011;18508;49.386;8.370;2023-04-03T08:32:24;4.72;;;2.00;;
31990;SDS011;18508;49.386;8.370;2023-04-03T08:34:54;3.38;;;2.15;;
31990;SDS011;18508;49.386;8.370;2023-04-03T08:37:22;4.03;;;2.08;;
31990;SDS011;18508;49.386;8.370;2023-04-03T08:39:51;3.35;;;1.80;;
31990;SDS011;18508;49.386;8.370;2023-04-03T08:42:24;6.43;;;2.22;;
31990;SDS011;18508;49.386;8.370;2023-04-03T08:45:10;5.38;;;2.20;;
31990;SDS011;18508;49.386;8.370;2023-04-03T08:47:43;3.78;;;1.63;;
31990;SDS011;18508;49.386;8.370;2023-04-03T08:50:16;5.57;;;1.80;;
31990;SDS011;18508;49.386;8.370;2023-04-03T08:55:20;4.88;;;2.20;;
31990;SDS011;18508;49.386;8.370;2023-04-03T08:57:57;3.75;;;1.73;;
31990;SDS011;18508;49.386;8.370;2023-04-03T09:00:30;5.13;;;1.98;;
31990;SDS011;18508;49.386;8.370;2023-04-03T09:03:10;4.47;;;1.80;;
31990;SDS011;18508;49.386;8.370;2023-04-03T09:05:43;4.15;;;1.77;;
31990;SDS011;18508;49.386;8.370;2023-04-03T09:08:23;7.00;;;2.20;;
31990;SDS011;18508;49.386;8.370;2023-04-03T09:10:59;8.77;;;2.10;;
31990;SDS011;18508;49.386;8.370;2023-04-03T09:13:39;6.75;;;2.20;;
31990;SDS011;18508;49.386;8.370;2023-04-03T09:16:18;3.78;;;1.83;;
31990;SDS011;18508;49.386;8.370;2023-04-03T09:18:54;3.72;;;1.83;;
31990;SDS011;18508;49.386;8.370;2023-04-03T09:21:32;4.53;;;1.85;;
31990;SDS011;18508;49.386;8.370;2023-04-03T09:24:05;3.22;;;1.58;;
31990;SDS011;18508;49.386;8.370;2023-04-03T09:26:39;3.13;;;1.70;;
31990;SDS011;18508;49.386;8.370;2023-04-03T09:29:13;3.67;;;1.92;;
31990;SDS011;18508;49.386;8.370;2023-04-03T09:31:47;4.00;;;1.50;;
31990;SDS011;18508;49.386;8.370;2023-04-03T09:34:22;4.07;;;1.70;;
31990;SDS011;18508;49.386;8.370;2023-04-03T09:36:54;4.82;;;1.60;;
31990;SDS011;18508;49.386;8.370;2023-04-03T09:39:24;4.47;;;1.52;;
31990;SDS011;18508;49.386;8.370;2023-04-03T09:41:55;5.13;;;1.75;;
31990;SDS011;18508;49.386;8.370;2023-04-03T09:44:26;3.60;;;2.08;;
31990;SDS011;18508;49.386;8.370;2023-04-03T09:46:56;3.10;;;1.50;;
31990;SDS011;18508;49.386;8.370;2023-04-03T09:49:27;4.47;;;1.75;;
31990;SDS011;18508;49.386;8.370;2023-04-03T09:51:57;3.47;;;1.60;;
31990;SDS011;18508;49.386;8.370;2023-04-03T09:54:32;4.70;;;1.85;;
31990;SDS011;18508;49.386;8.370;2023-04-03T09:57:06;4.20;;;1.75;;
31990;SDS011;18508;49.386;8.370;2023-04-03T09:59:43;3.63;;;1.67;;
31990;SDS011;18508;49.386;8.370;2023-04-03T10:02:28;4.30;;;1.60;;
31990;SDS011;18508;49.386;8.370;2023-04-03T10:05:04;2.65;;;1.52;;
31990;SDS011;18508;49.386;8.370;2023-04-03T10:07:54;3.65;;;1.85;;
31990;SDS011;18508;49.386;8.370;2023-04-03T10:10:36;2.50;;;1.40;;
31990;SDS011;18508;49.386;8.370;2023-04-03T10:13:06;2.08;;;1.52;;
31990;SDS011;18508;49.386;8.370;2023-04-03T10:15:46;3.65;;;2.05;;
31990;SDS011;18508;49.386;8.370;2023-04-03T10:18:25;4.28;;;2.20;;
31990;SDS011;18508;49.386;8.370;2023-04-03T10:20:59;6.05;;;1.90;;
31990;SDS011;18508;49.386;8.370;2023-04-03T10:23:39;5.38;;;2.20;;
31990;SDS011;18508;49.386;8.370;2023-04-03T10:26:17;4.72;;;2.17;;
31990;SDS011;18508;49.386;8.370;2023-04-03T10:28:57;2.70;;;1.30;;
31990;SDS011;18508;49.386;8.370;2023-04-03T10:31:36;4.03;;;1.65;;
31990;SDS011;18508;49.386;8.370;2023-04-03T10:34:12;5.30;;;1.52;;
31990;SDS011;18508;49.386;8.370;2023-04-03T10:36:49;3.60;;;1.55;;
31990;SDS011;18508;49.386;8.370;2023-04-03T10:39:27;4.07;;;1.70;;
31990;SDS011;18508;49.386;8.370;2023-04-03T10:42:01;3.17;;;1.52;;
31990;SDS011;18508;49.386;8.370;2023-04-03T10:44:49;2.15;;;1.10;;
31990;SDS011;18508;49.386;8.370;2023-04-03T10:50:05;2.03;;;1.25;;
31990;SDS011;18508;49.386;8.370;2023-04-03T10:52:51;2.67;;;1.33;;
31990;SDS011;18508;49.386;8.370;2023-04-03T10:55:34;3.72;;;1.30;;
31990;SDS011;18508;49.386;8.370;2023-04-03T10:58:06;3.03;;;1.00;;
31990;SDS011;18508;49.386;8.370;2023-04-03T11:00:43;2.17;;;1.10;;
31990;SDS011;18508;49.386;8.370;2023-04-03T11:03:16;2.92;;;1.45;;
31990;SDS011;18508;49.386;8.370;2023-04-03T11:05:55;5.22;;;1.58;;
31990;SDS011;18508;49.386;8.370;2023-04-03T11:08:27;3.10;;;1.30;;
31990;SDS011;18508;49.386;8.370;2023-04-03T11:11:00;3.90;;;1.67;;
31990;SDS011;18508;49.386;8.370;2023-04-03T11:13:34;2.17;;;1.08;;
31990;SDS011;18508;49.386;8.370;2023-04-03T11:16:09;2.75;;;1.30;;
31990;SDS011;18508;49.386;8.370;2023-04-03T11:18:47;5.05;;;1.30;;
31990;SDS011;18508;49.386;8.370;2023-04-03T11:21:20;2.67;;;1.67;;
31990;SDS011;18508;49.386;8.370;2023-04-03T11:23:51;3.53;;;1.30;;
31990;SDS011;18508;49.386;8.370;2023-04-03T11:26:26;4.40;;;1.50;;
31990;SDS011;18508;49.386;8.370;2023-04-03T11:29:01;2.45;;;1.20;;
31990;SDS011;18508;49.386;8.370;2023-04-03T11:31:47;4.97;;;1.77;;
31990;SDS011;18508;49.386;8.370;2023-04-03T11:34:35;2.85;;;1.02;;
31990;SDS011;18508;49.386;8.370;2023-04-03T11:37:13;3.15;;;1.35;;
31990;SDS011;18508;49.386;8.370;2023-04-03T11:39:47;2.97;;;1.23;;
31990;SDS011;18508;49.386;8.370;2023-04-03T11:42:33;3.80;;;1.45;;
31990;SDS011;18508;49.386;8.370;2023-04-03T11:45:15;3.65;;;1.45;;
31990;SDS011;18508;49.386;8.370;2023-04-03T11:47:54;3.33;;;1.45;;
31990;SDS011;18508;49.386;8.370;2023-04-03T11:50:39;3.15;;;1.80;;
31990;SDS011;18508;49.386;8.370;2023-04-03T11:56:02;1.98;;;1.20;;
31990;SDS011;18508;49.386;8.370;2023-04-03T12:01:11;4.25;;;1.45;;
31990;SDS011;18508;49.386;8.370;2023-04-03T12:04:12;3.45;;;1.40;;
31990;SDS011;18508;49.386;8.370;2023-04-03T12:06:49;4.45;;;1.77;;
31990;SDS011;18508;49.386;8.370;2023-04-03T12:12:58;5.28;;;1.50;;
31990;SDS011;18508;49.386;8.370;2023-04-03T12:18:40;5.10;;;1.50;;
31990;SDS011;18508;49.386;8.370;2023-04-03T12:22:04;2.78;;;1.30;;
31990;SDS011;18508;49.386;8.370;2023-04-03T12:24:35;4.32;;;1.60;;
31990;SDS011;18508;49.386;8.370;2023-04-03T12:27:09;3.20;;;1.40;;
31990;SDS011;18508;49.386;8.370;2023-04-03T12:29:47;4.00;;;1.77;;
31990;SDS011;18508;49.386;8.370;2023-04-03T12:32:24;3.53;;;1.52;;
31990;SDS011;18508;49.386;8.370;2023-04-03T12:37:43;6.35;;;1.40;;
31990;SDS011;18508;49.386;8.370;2023-04-03T12:40:30;4.18;;;1.40;;
31990;SDS011;18508;49.386;8.370;2023-04-03T12:43:05;2.55;;;1.35;;
31990;SDS011;18508;49.386;8.370;2023-04-03T12:45:46;3.38;;;1.42;;
31990;SDS011;18508;49.386;8.370;2023-04-03T12:48:17;3.17;;;1.50;;
31990;SDS011;18508;49.386;8.370;2023-04-03T12:50:51;2.95;;;1.42;;
31990;SDS011;18508;49.386;8.370;2023-04-03T12:53:21;3.38;;;1.67;;
31990;SDS011;18508;49.386;8.370;2023-04-03T12:55:57;5.97;;;1.85;;
31990;SDS011;18508;49.386;8.370;2023-04-03T12:58:52;4.20;;;1.60;;
31990;SDS011;18508;49.386;8.370;2023-04-03T13:01:22;4.82;;;1.40;;
31990;SDS011;18508;49.386;8.370;2023-04-03T13:03:55;3.10;;;1.60;;
31990;SDS011;18508;49.386;8.370;2023-04-03T13:06:27;4.15;;;1.40;;
31990;SDS011;18508;49.386;8.370;2023-04-03T13:09:00;2.78;;;1.55;;
31990;SDS011;18508;49.386;8.370;2023-04-03T13:11:40;4.57;;;1.45;;
31990;SDS011;18508;49.386;8.370;2023-04-03T13:14:14;2.63;;;1.48;;
31990;SDS011;18508;49.386;8.370;2023-04-03T13:16:52;3.80;;;2.13;;
31990;SDS011;18508;49.386;8.370;2023-04-03T13:19:23;4.00;;;1.50;;
31990;SDS011;18508;49.386;8.370;2023-04-03T13:21:56;3.45;;;1.55;;
31990;SDS011;18508;49.386;8.370;2023-04-03T13:24:27;3.10;;;1.40;;
31990;SDS011;18508;49.386;8.370;2023-04-03T13:26:58;4.68;;;1.50;;
31990;SDS011;18508;49.386;8.370;2023-04-03T13:29:28;2.45;;;1.30;;
31990;SDS011;18508;49.386;8.370;2023-04-03T13:31:59;2.95;;;1.40;;
31990;SDS011;18508;49.386;8.370;2023-04-03T13:34:29;6.47;;;1.70;;
31990;SDS011;18508;49.386;8.370;2023-04-03T13:37:05;3.53;;;1.60;;
31990;SDS011;18508;49.386;8.370;2023-04-03T13:39:35;3.40;;;1.35;;
31990;SDS011;18508;49.386;8.370;2023-04-03T13:42:16;2.75;;;1.40;;
31990;SDS011;18508;49.386;8.370;2023-04-03T13:44:49;3.28;;;1.42;;
31990;SDS011;18508;49.386;8.370;2023-04-03T13:47:37;2.53;;;1.50;;
31990;SDS011;18508;49.386;8.370;2023-04-03T13:50:13;3.47;;;1.40;;
31990;SDS011;18508;49.386;8.370;2023-04-03T13:52:45;3.67;;;1.60;;
31990;SDS011;18508;49.386;8.370;2023-04-03T13:55:18;2.42;;;1.45;;
31990;SDS011;18508;49.386;8.370;2023-04-03T13:57:55;3.72;;;1.50;;
31990;SDS011;18508;49.386;8.370;2023-04-03T14:00:29;3.70;;;1.50;;
31990;SDS011;18508;49.386;8.370;2023-04-03T14:03:01;5.15;;;1.48;;
31990;SDS011;18508;49.386;8.370;2023-04-03T14:05:41;4.80;;;1.60;;
31990;SDS011;18508;49.386;8.370;2023-04-03T14:08:14;3.08;;;1.50;;
31990;SDS011;18508;49.386;8.370;2023-04-03T14:10:54;2.78;;;1.42;;
31990;SDS011;18508;49.386;8.370;2023-04-03T14:13:26;2.45;;;1.38;;
31990;SDS011;18508;49.386;8.370;2023-04-03T14:15:57;3.20;;;1.40;;
31990;SDS011;18508;49.386;8.370;2023-04-03T14:18:41;3.05;;;1.50;;
31990;SDS011;18508;49.386;8.370;2023-04-03T14:21:10;4.60;;;1.50;;
31990;SDS011;18508;49.386;8.370;2023-04-03T14:23:39;2.92;;;1.55;;
31990;SDS011;18508;49.386;8.370;2023-04-03T14:26:09;3.60;;;1.60;;
31990;SDS011;18508;49.386;8.370;2023-04-03T14:28:41;4.95;;;1.60;;
31990;SDS011;18508;49.386;8.370;2023-04-03T14:31:10;4.25;;;1.60;;
31990;SDS011;18508;49.386;8.370;2023-04-03T14:33:42;3.05;;;1.42;;
31990;SDS011;18508;49.386;8.370;2023-04-03T14:36:11;2.80;;;1.75;;
31990;SDS011;18508;49.386;8.370;2023-04-03T14:38:43;2.67;;;1.48;;
31990;SDS011;18508;49.386;8.370;2023-04-03T14:41:13;2.90;;;1.27;;
31990;SDS011;18508;49.386;8.370;2023-04-03T14:43:44;3.33;;;1.40;;
31990;SDS011;18508;49.386;8.370;2023-04-03T14:46:15;2.90;;;1.50;;
31990;SDS011;18508;49.386;8.370;2023-04-03T14:48:45;3.35;;;1.40;;
31990;SDS011;18508;49.386;8.370;2023-04-03T14:51:15;2.35;;;1.40;;
31990;SDS011;18508;49.386;8.370;2023-04-03T14:53:43;3.17;;;1.42;;
31990;SDS011;18508;49.386;8.370;2023-04-03T14:56:12;2.70;;;1.23;;
31990;SDS011;18508;49.386;8.370;2023-04-03T14:58:44;3.42;;;1.65;;
31990;SDS011;18508;49.386;8.370;2023-04-03T15:01:15;3.63;;;1.67;;
31990;SDS011;18508;49.386;8.370;2023-04-03T15:03:44;2.85;;;1.30;;
31990;SDS011;18508;49.386;8.370;2023-04-03T15:06:13;4.60;;;1.67;;
31990;SDS011;18508;49.386;8.370;2023-04-03T15:08:43;2.55;;;1.40;;
31990;SDS011;18508;49.386;8.370;2023-04-03T15:11:14;3.45;;;1.50;;
31990;SDS011;18508;49.386;8.370;2023-04-03T15:13:42;4.60;;;1.60;;
31990;SDS011;18508;49.386;8.370;2023-04-03T15:16:14;4.72;;;2.47;;
31990;SDS011;18508;49.386;8.370;2023-04-03T15:18:44;5.90;;;2.38;;
31990;SDS011;18508;49.386;8.370;2023-04-03T15:21:14;3.33;;;1.70;;
31990;SDS011;18508;49.386;8.370;2023-04-03T15:23:43;2.75;;;1.60;;
31990;SDS011;18508;49.386;8.370;2023-04-03T15:26:13;4.43;;;1.70;;
31990;SDS011;18508;49.386;8.370;2023-04-03T15:28:44;5.80;;;1.83;;
31990;SDS011;18508;49.386;8.370;2023-04-03T15:31:13;3.42;;;1.35;;
31990;SDS011;18508;49.386;8.370;2023-04-03T15:33:42;4.70;;;1.75;;
31990;SDS011;18508;49.386;8.370;2023-04-03T15:36:10;2.70;;;1.30;;